Minneapolis, MN

16:37 CST le 03 Mars 2015 (GMT -0600)
Minneapolis-Saint Paul International | Change Station
CLOSE
Current Station
Aéroport
Location: Minneapolis,
Altitude: 837 ft
Stations météo à proximité

Alt. 837 ft 44.89 °N, 93.23 °W | Updated 44 minutes ago

Partiellement nuageux
Partiellement nuageux
26 ° F
Paraît 12 ° F
N
22
Vent Variable Vent de NO
Gusts 26 mph

Aujourd'hui
Haut(e) -- | Bas -- ° F
--% Risque de précip.
Hier
Haut(e) -- | Bas -- ° F
Precip. -- pouce
6:47 AM 6:02 PM
Lune gibbeuse croissante, 97% visible
Pression 29.78 pouce
Visibilité 10.0 Miles terrestres
Nuages Peu 2800 ft
Refroidissement éolien 12 ° F
Point de rosée 11 ° F
Humidité 53%
Précipitations 0.13 pouce
Profondeur de la couche neigeuse Non disponible.
UV 1 sur 12
Pollen .50 sur 12
Qualité de l'air Non disponible.
Flu Activity Non disponible.
METAR KMSP 032153Z 31019G23KT 10SM FEW028 M03/M12 A2974 RMK AO2 PK WND 32029/2137 SLP085 T10331117

More Conditions Fewer Conditions

Pression 29.78 pouce
Visibilité 10.0 Miles terrestres
Nuages Peu 2800 ft
Refroidissement éolien 12 ° F
Point de rosée 11 ° F
Humidité 53%
Précipitations 0.13 pouce
Profondeur de la couche neigeuse Non disponible.
UV 1 sur 12
Pollen .50 sur 12
Qualité de l'air Non disponible.
Flu Activity Non disponible.
METAR KMSP 032153Z 31019G23KT 10SM FEW028 M03/M12 A2974 RMK AO2 PK WND 32029/2137 SLP085 T10331117

More Conditions Fewer Conditions

10-Day Weather Forecast

Almanac

Astronomie

Mar. 03, 2015 Lever Coucher
Temps réel
Crépuscule civil
Crépuscule nautique
Crépuscule astronomique
Lune
Durée de lumière visible
Longueur du jour
Tomorrow will be .
, % of the Moon is Illuminated

Extrêmes aujourd'hui

State Highs State Lows

Community

WunderPhotos

Upload Photos

1,802,297 Photos téléchargées !

WunderBlogs® & News

Nearby

Qualité de l'air

  Qualité de l'air Indice de la qualité de l'air Polluant
Not available.

Épaisseur de neige

Station Depth Altitude

Activité sismique

Ville Distance Mag. Time & Date
Minimum magnitude displayed is 2.5.

Températures des eaux côtières

Lieu Température

Stations météo à proximité